createdAt,value
2018-07-15T00:00:22.643Z,1013.42
2018-07-15T00:01:32.341Z,1013.43
2018-07-15T00:02:41.811Z,1013.43
2018-07-15T00:03:51.484Z,1013.45
2018-07-15T00:05:01.155Z,1013.44
2018-07-15T00:06:10.306Z,1013.45
2018-07-15T00:07:19.462Z,1013.44
2018-07-15T00:08:29.135Z,1013.41
2018-07-15T00:09:38.304Z,1013.43
2018-07-15T00:10:47.982Z,1013.41
2018-07-15T00:11:57.649Z,1013.43
2018-07-15T00:13:07.067Z,1013.4
2018-07-15T00:14:16.494Z,1013.39
2018-07-15T00:15:57.776Z,1013.43
2018-07-15T00:17:07.450Z,1013.42
2018-07-15T00:18:17.395Z,1013.4
2018-07-15T00:19:26.568Z,1013.43
2018-07-15T00:20:35.988Z,1013.42
2018-07-15T00:21:45.905Z,1013.42
2018-07-15T00:22:55.565Z,1013.48
2018-07-15T00:24:04.453Z,1013.42
2018-07-15T00:25:13.617Z,1013.43
2018-07-15T00:26:22.519Z,1013.43
2018-07-15T00:27:32.431Z,1013.4
2018-07-15T00:28:41.860Z,1013.37
2018-07-15T00:29:51.015Z,1013.4
2018-07-15T00:31:00.680Z,1013.35
2018-07-15T00:32:10.106Z,1013.38
2018-07-15T00:33:19.264Z,1013.36
2018-07-15T00:34:28.678Z,1013.36
2018-07-15T00:35:38.081Z,1013.39
2018-07-15T00:36:46.984Z,1013.37
2018-07-15T00:37:56.137Z,1013.39
2018-07-15T00:39:05.040Z,1013.38
2018-07-15T00:40:14.453Z,1013.4
2018-07-15T00:41:24.131Z,1013.36
2018-07-15T00:42:33.276Z,1013.36
2018-07-15T00:43:42.942Z,1013.37
2018-07-15T00:44:52.625Z,1013.33
2018-07-15T00:46:01.783Z,1013.34
2018-07-15T00:47:11.454Z,1013.34
2018-07-15T00:48:20.873Z,1013.37
2018-07-15T00:49:30.137Z,1013.34
2018-07-15T00:50:39.287Z,1013.37
2018-07-15T00:51:49.223Z,1013.36
2018-07-15T00:52:58.652Z,1013.33
2018-07-15T00:54:08.335Z,1013.35
2018-07-15T00:55:17.544Z,1013.34
2018-07-15T00:56:27.534Z,1013.35
2018-07-15T00:57:36.453Z,1013.35
2018-07-15T00:58:46.131Z,1013.36
2018-07-15T00:59:54.781Z,1013.34
2018-07-15T01:01:04.197Z,1013.37
2018-07-15T01:02:13.620Z,1013.36
2018-07-15T01:03:22.772Z,1013.34
2018-07-15T01:04:32.168Z,1013.35
2018-07-15T01:05:41.314Z,1013.33
2018-07-15T01:06:50.998Z,1013.32
2018-07-15T01:08:00.152Z,1013.29
2018-07-15T01:09:10.070Z,1013.3
2018-07-15T01:10:19.484Z,1013.31
2018-07-15T01:11:28.633Z,1013.31
2018-07-15T01:12:38.295Z,1013.3
2018-07-15T01:13:47.723Z,1013.34
2018-07-15T01:14:57.128Z,1013.33
2018-07-15T01:16:06.530Z,1013.3
2018-07-15T01:17:15.684Z,1013.29
2018-07-15T01:18:25.424Z,1013.29
2018-07-15T01:19:34.898Z,1013.29
2018-07-15T01:20:44.565Z,1013.26
2018-07-15T01:21:53.235Z,1013.29
2018-07-15T01:23:02.136Z,1013.28
2018-07-15T01:24:11.553Z,1013.21
2018-07-15T01:25:20.708Z,1013.25
2018-07-15T01:26:30.147Z,1013.25
2018-07-15T01:27:39.313Z,1013.26
2018-07-15T01:28:48.726Z,1013.24
2018-07-15T01:29:58.656Z,1013.23
2018-07-15T01:31:07.555Z,1013.21
2018-07-15T01:32:16.979Z,1013.17
2018-07-15T01:33:26.129Z,1013.23
2018-07-15T01:34:35.597Z,1013.22
2018-07-15T01:35:45.016Z,1013.25
2018-07-15T01:36:54.434Z,1013.26
2018-07-15T01:38:03.589Z,1013.2
2018-07-15T01:39:12.473Z,1013.21
2018-07-15T01:40:21.883Z,1013.2
2018-07-15T01:41:31.379Z,1013.19
2018-07-15T01:42:40.032Z,1013.18
2018-07-15T01:43:49.706Z,1013.2
2018-07-15T01:44:59.390Z,1013.2
2018-07-15T01:46:09.065Z,1013.16
2018-07-15T01:47:18.470Z,1013.17
2018-07-15T01:48:27.877Z,1013.16
2018-07-15T01:49:36.777Z,1013.17
2018-07-15T01:50:45.928Z,1013.15
2018-07-15T01:51:55.595Z,1013.12
2018-07-15T01:53:05.279Z,1013.11
2018-07-15T01:54:14.689Z,1013.12
2018-07-15T01:55:24.097Z,1013.14
2018-07-15T01:56:33.255Z,1013.11
2018-07-15T01:57:42.748Z,1013.12
2018-07-15T01:58:52.174Z,1013.14
2018-07-15T02:00:01.590Z,1013.11
2018-07-15T02:01:11.261Z,1013.12
2018-07-15T02:02:20.916Z,1013.13
2018-07-15T02:03:30.066Z,1013.13
2018-07-15T02:04:39.488Z,1013.14
2018-07-15T02:05:48.890Z,1013.11
2018-07-15T02:06:58.053Z,1013.14
2018-07-15T02:08:06.703Z,1013.08
2018-07-15T02:09:15.852Z,1013.09
2018-07-15T02:10:25.259Z,1013.12
2018-07-15T02:11:34.671Z,1013.07
2018-07-15T02:12:44.085Z,1013.1
2018-07-15T02:13:53.240Z,1013.08
2018-07-15T02:15:02.406Z,1013.08
2018-07-15T02:16:11.305Z,1013.05
2018-07-15T02:17:20.462Z,1013.08
2018-07-15T02:18:29.880Z,1013.09
2018-07-15T02:19:39.281Z,1013.08
2018-07-15T02:20:48.429Z,1013.1
2018-07-15T02:21:57.832Z,1013.1
2018-07-15T02:23:06.982Z,1013.11
2018-07-15T02:24:15.879Z,1013.12
2018-07-15T02:25:25.282Z,1013.13
2018-07-15T02:26:34.447Z,1013.14
2018-07-15T02:27:44.127Z,1013.12
2018-07-15T02:28:54.071Z,1013.11
2018-07-15T02:30:03.494Z,1013.12
2018-07-15T02:31:12.957Z,1013.1
2018-07-15T02:32:22.869Z,1013.11
2018-07-15T02:33:32.282Z,1013.09
2018-07-15T02:34:42.220Z,1013.09
2018-07-15T02:35:51.904Z,1013.1
2018-07-15T02:37:01.319Z,1013.09
2018-07-15T02:38:10.730Z,1013.11
2018-07-15T02:39:19.926Z,1013.1
2018-07-15T02:40:29.343Z,1013.12
2018-07-15T02:41:38.244Z,1013.12
2018-07-15T02:42:47.702Z,1013.11
2018-07-15T02:43:57.125Z,1013.08
2018-07-15T02:45:06.829Z,1013.1
2018-07-15T02:46:15.991Z,1013.08
2018-07-15T02:47:25.684Z,1013.07
2018-07-15T02:48:34.846Z,1013.07
2018-07-15T02:49:44.540Z,1013.08
2018-07-15T02:50:53.450Z,1013.05
2018-07-15T02:52:02.628Z,1013.07
2018-07-15T02:53:12.041Z,1013.09
2018-07-15T02:54:21.717Z,1013.12
2018-07-15T02:55:31.153Z,1013.09
2018-07-15T02:56:40.817Z,1013.08
2018-07-15T02:57:50.754Z,1013.1
2018-07-15T02:59:00.432Z,1013.09
2018-07-15T03:00:09.841Z,1013.08
2018-07-15T03:01:19.761Z,1013.09
2018-07-15T03:02:29.192Z,1013.1
2018-07-15T03:03:38.616Z,1013.07
2018-07-15T03:04:48.294Z,1013.07
2018-07-15T03:05:57.715Z,1013.07
2018-07-15T03:07:07.137Z,1013.07
2018-07-15T03:08:16.804Z,1013.04
2018-07-15T03:09:25.951Z,1013
2018-07-15T03:10:35.645Z,1013.02
2018-07-15T03:11:45.460Z,1013.02
2018-07-15T03:12:55.180Z,1013.03
2018-07-15T03:14:04.591Z,1012.99
2018-07-15T03:15:13.737Z,1013.01
2018-07-15T03:16:23.422Z,1012.96
2018-07-15T03:17:32.839Z,1013
2018-07-15T03:18:42.269Z,1013.05
2018-07-15T03:19:51.995Z,1012.96
2018-07-15T03:21:01.942Z,1012.98
2018-07-15T03:22:11.114Z,1012.99
2018-07-15T03:23:20.514Z,1013
2018-07-15T03:24:30.182Z,1012.95
2018-07-15T03:25:39.088Z,1012.96
2018-07-15T03:26:48.510Z,1012.97
2018-07-15T03:27:58.451Z,1012.98
2018-07-15T03:29:07.351Z,1012.97
2018-07-15T03:30:16.510Z,1012.96
2018-07-15T03:31:25.949Z,1012.99
2018-07-15T03:32:35.352Z,1012.96
2018-07-15T03:33:44.784Z,1012.96
2018-07-15T03:34:54.451Z,1012.95
2018-07-15T03:36:04.116Z,1012.95
2018-07-15T03:37:13.542Z,1012.98
2018-07-15T03:38:22.964Z,1012.95
2018-07-15T03:39:32.635Z,1012.98
2018-07-15T03:40:42.045Z,1012.95
2018-07-15T03:41:51.710Z,1012.95
2018-07-15T03:43:01.392Z,1012.95
2018-07-15T03:44:10.547Z,1012.97
2018-07-15T03:45:19.461Z,1012.96
2018-07-15T03:46:28.663Z,1012.96
2018-07-15T03:47:38.073Z,1012.94
2018-07-15T03:48:47.024Z,1012.95
2018-07-15T03:49:56.175Z,1012.91
2018-07-15T03:51:05.589Z,1012.93
2018-07-15T03:52:14.995Z,1012.88
2018-07-15T03:53:24.651Z,1012.88
2018-07-15T03:54:33.800Z,1012.86
2018-07-15T03:55:43.728Z,1012.86
2018-07-15T03:56:53.400Z,1012.86
2018-07-15T03:58:02.802Z,1012.86
2018-07-15T03:59:12.483Z,1012.86
2018-07-15T04:00:22.173Z,1012.88
2018-07-15T04:01:31.081Z,1012.86
2018-07-15T04:02:40.239Z,1012.88
2018-07-15T04:03:49.901Z,1012.9
2018-07-15T04:04:59.309Z,1012.91
2018-07-15T04:06:08.218Z,1012.86
2018-07-15T04:07:17.867Z,1012.89
2018-07-15T04:08:27.288Z,1012.86
2018-07-15T04:09:37.703Z,1012.85
2018-07-15T04:10:47.106Z,1012.89
2018-07-15T04:11:57.034Z,1012.87
2018-07-15T04:13:06.955Z,1012.83
2018-07-15T04:14:15.841Z,1012.85
2018-07-15T04:15:25.512Z,1012.82
2018-07-15T04:16:35.192Z,1012.84
2018-07-15T04:17:44.871Z,1012.83
2018-07-15T04:18:54.279Z,1012.83
2018-07-15T04:20:03.423Z,1012.84
2018-07-15T04:21:13.079Z,1012.88
2018-07-15T04:22:22.489Z,1012.86
2018-07-15T04:23:31.891Z,1012.86
2018-07-15T04:24:41.041Z,1012.84
2018-07-15T04:25:49.943Z,1012.81
2018-07-15T04:26:59.367Z,1012.81
2018-07-15T04:28:08.577Z,1012.79
2018-07-15T04:29:18.201Z,1012.79
2018-07-15T04:30:27.613Z,1012.78
2018-07-15T04:31:37.009Z,1012.81
2018-07-15T04:32:46.150Z,1012.79
2018-07-15T04:33:55.081Z,1012.79
2018-07-15T04:35:04.244Z,1012.8
2018-07-15T04:36:13.665Z,1012.82
2018-07-15T04:37:23.335Z,1012.8
2018-07-15T04:38:32.997Z,1012.78
2018-07-15T04:39:42.400Z,1012.79
2018-07-15T04:40:51.843Z,1012.79
2018-07-15T04:42:01.262Z,1012.78
2018-07-15T04:43:10.670Z,1012.76
2018-07-15T04:44:20.076Z,1012.76
2018-07-15T04:45:28.975Z,1012.78
2018-07-15T04:46:38.906Z,1012.76
2018-07-15T04:47:47.547Z,1012.77
2018-07-15T04:48:57.222Z,1012.76
2018-07-15T04:50:06.906Z,1012.75
2018-07-15T04:51:16.324Z,1012.76
2018-07-15T04:52:25.725Z,1012.8
2018-07-15T04:53:35.137Z,1012.79
2018-07-15T04:54:44.042Z,1012.78
2018-07-15T04:55:53.451Z,1012.73
2018-07-15T04:57:03.114Z,1012.73
2018-07-15T04:58:13.045Z,1012.72
2018-07-15T04:59:22.196Z,1012.76
2018-07-15T05:00:32.103Z,1012.73
2018-07-15T05:01:41.253Z,1012.75
2018-07-15T05:02:50.478Z,1012.77
2018-07-15T05:03:59.886Z,1012.76
2018-07-15T05:05:08.876Z,1012.75
2018-07-15T05:06:18.554Z,1012.75
2018-07-15T05:07:28.215Z,1012.73
2018-07-15T05:08:37.628Z,1012.75
2018-07-15T05:09:46.797Z,1012.73
2018-07-15T05:10:55.956Z,1012.72
2018-07-15T05:12:05.367Z,1012.74
2018-07-15T05:13:14.512Z,1012.73
2018-07-15T05:14:24.178Z,1012.7
2018-07-15T05:15:33.335Z,1012.71
2018-07-15T05:16:42.487Z,1012.73
2018-07-15T05:17:51.912Z,1012.72
2018-07-15T05:19:01.576Z,1012.72
2018-07-15T05:20:11.260Z,1012.71
2018-07-15T05:21:20.936Z,1012.77
2018-07-15T05:22:30.865Z,1012.73
2018-07-15T05:23:40.271Z,1012.74
2018-07-15T05:24:49.457Z,1012.76
2018-07-15T05:25:59.680Z,1012.74
2018-07-15T05:27:09.611Z,1012.74
2018-07-15T05:28:19.317Z,1012.81
2018-07-15T05:29:29.231Z,1012.81
2018-07-15T05:30:38.374Z,1012.8
2018-07-15T05:31:47.798Z,1012.79
2018-07-15T05:32:57.267Z,1012.82
2018-07-15T05:34:06.680Z,1012.84
2018-07-15T05:35:16.110Z,1012.86
2018-07-15T05:36:25.012Z,1012.9
2018-07-15T05:37:34.425Z,1012.9
2018-07-15T05:38:43.569Z,1012.9
2018-07-15T05:39:53.223Z,1012.91
2018-07-15T05:41:02.390Z,1012.91
2018-07-15T05:42:12.073Z,1012.87
2018-07-15T05:43:21.239Z,1012.86
2018-07-15T05:44:30.930Z,1012.87
2018-07-15T05:45:40.102Z,1012.87
2018-07-15T05:46:49.509Z,1012.84
2018-07-15T05:47:59.178Z,1012.87
2018-07-15T05:49:08.091Z,1012.89
2018-07-15T05:50:16.990Z,1012.96
2018-07-15T05:51:26.410Z,1012.97
2018-07-15T05:52:35.817Z,1012.96
2018-07-15T05:53:44.987Z,1012.95
2018-07-15T05:54:54.396Z,1012.96
2018-07-15T05:56:04.324Z,1012.97
2018-07-15T05:57:13.997Z,1012.97
2018-07-15T05:58:23.146Z,1012.95
2018-07-15T05:59:32.300Z,1012.95
2018-07-15T06:00:41.446Z,1012.91
2018-07-15T06:01:50.596Z,1012.95
2018-07-15T06:03:00.283Z,1012.97
2018-07-15T06:04:09.450Z,1012.97
2018-07-15T06:05:18.880Z,1013
2018-07-15T06:06:28.023Z,1012.98
2018-07-15T06:07:37.422Z,1013
2018-07-15T06:08:46.856Z,1013.05
2018-07-15T06:09:55.486Z,1013.03
2018-07-15T06:11:04.633Z,1013.02
2018-07-15T06:12:14.292Z,1013.07
2018-07-15T06:13:24.217Z,1013.1
2018-07-15T06:14:33.881Z,1013.11
2018-07-15T06:15:43.359Z,1013.1
2018-07-15T06:16:52.528Z,1013.07
2018-07-15T06:18:02.599Z,1013.08
2018-07-15T06:19:12.371Z,1013.11
2018-07-15T06:20:22.049Z,1013.07
2018-07-15T06:21:31.868Z,1013.1
2018-07-15T06:22:41.061Z,1013.07
2018-07-15T06:23:51.135Z,1013.1
2018-07-15T06:25:00.305Z,1013.09
2018-07-15T06:26:09.743Z,1013.08
2018-07-15T06:27:19.157Z,1013.1
2018-07-15T06:28:28.318Z,1013.13
2018-07-15T06:29:37.727Z,1013.1
2018-07-15T06:30:46.625Z,1013.1
2018-07-15T06:31:55.834Z,1013.09
2018-07-15T06:33:05.976Z,1013.09
2018-07-15T06:34:15.156Z,1013.09
2018-07-15T06:35:24.835Z,1013.04
2018-07-15T06:36:34.542Z,1013.06
2018-07-15T06:37:44.203Z,1013.05
2018-07-15T06:38:53.604Z,1013.09
2018-07-15T06:40:02.836Z,1013.06
2018-07-15T06:41:12.199Z,1013.06
2018-07-15T06:42:21.359Z,1013.03
2018-07-15T06:43:30.824Z,1013.06
2018-07-15T06:44:39.999Z,1013.02
2018-07-15T06:45:48.893Z,1013.03
2018-07-15T06:46:58.574Z,1013.01
2018-07-15T06:48:07.984Z,1013.02
2018-07-15T06:49:17.667Z,1012.97
2018-07-15T06:50:27.336Z,1013.01
2018-07-15T06:51:36.502Z,1012.97
2018-07-15T06:52:45.150Z,1012.96
2018-07-15T06:53:54.616Z,1012.97
2018-07-15T06:55:04.240Z,1012.98
2018-07-15T06:56:13.703Z,1012.92
2018-07-15T06:57:23.376Z,1012.87
2018-07-15T06:58:32.524Z,1012.9
2018-07-15T06:59:41.944Z,1012.88
2018-07-15T07:00:51.622Z,1012.87
2018-07-15T07:02:00.856Z,1012.88
2018-07-15T07:03:10.013Z,1012.85
2018-07-15T07:04:18.915Z,1012.87
2018-07-15T07:05:28.330Z,1012.91
2018-07-15T07:06:37.755Z,1012.88
2018-07-15T07:07:47.006Z,1012.85
2018-07-15T07:08:56.098Z,1012.89
2018-07-15T07:10:05.517Z,1012.9
2018-07-15T07:11:15.439Z,1012.91
2018-07-15T07:12:25.392Z,1012.93
2018-07-15T07:13:34.833Z,1012.94
2018-07-15T07:14:44.670Z,1012.94
2018-07-15T07:15:54.332Z,1012.92
2018-07-15T07:17:03.226Z,1012.94
2018-07-15T07:18:12.420Z,1012.96
2018-07-15T07:19:21.816Z,1012.94
2018-07-15T07:20:31.031Z,1012.99
2018-07-15T07:21:41.454Z,1012.98
2018-07-15T07:22:50.097Z,1012.94
2018-07-15T07:23:59.247Z,1012.95
2018-07-15T07:25:08.153Z,1013.01
2018-07-15T07:26:17.050Z,1012.98
2018-07-15T07:27:26.231Z,1013.01
2018-07-15T07:28:35.891Z,1012.97
2018-07-15T07:29:45.405Z,1012.98
2018-07-15T07:30:54.297Z,1012.96
2018-07-15T07:32:03.696Z,1012.95
2018-07-15T07:33:12.845Z,1013
2018-07-15T07:34:22.017Z,1012.97
2018-07-15T07:35:31.255Z,1012.99
2018-07-15T07:36:40.622Z,1013.01
2018-07-15T07:37:50.299Z,1012.99
2018-07-15T07:38:59.458Z,1012.98
2018-07-15T07:40:09.153Z,1012.95
2018-07-15T07:41:19.120Z,1012.93
2018-07-15T07:42:28.665Z,1012.94
2018-07-15T07:43:38.353Z,1012.93
2018-07-15T07:44:47.762Z,1012.9
2018-07-15T07:45:56.941Z,1012.91
2018-07-15T07:47:06.617Z,1012.92
2018-07-15T07:48:16.293Z,1012.93
2018-07-15T07:49:25.701Z,1012.93
2018-07-15T07:50:34.865Z,1012.9
2018-07-15T07:51:44.266Z,1012.89
2018-07-15T07:52:53.936Z,1012.87
2018-07-15T07:54:02.833Z,1012.91
2018-07-15T07:55:12.490Z,1012.89
2018-07-15T07:56:22.166Z,1012.88
2018-07-15T07:57:31.830Z,1012.83
2018-07-15T07:58:41.248Z,1012.84
2018-07-15T07:59:50.404Z,1012.83
2018-07-15T08:00:59.286Z,1012.83
2018-07-15T08:02:08.967Z,1012.82
2018-07-15T08:03:18.377Z,1012.77
2018-07-15T08:04:27.774Z,1012.76
2018-07-15T08:05:37.211Z,1012.78
2018-07-15T08:06:46.120Z,1012.74
2018-07-15T08:07:56.035Z,1012.76
2018-07-15T08:09:05.473Z,1012.76
2018-07-15T08:10:14.881Z,1012.73
2018-07-15T08:11:24.537Z,1012.74
2018-07-15T08:12:33.950Z,1012.74
2018-07-15T08:13:43.605Z,1012.72
2018-07-15T08:14:53.009Z,1012.71
2018-07-15T08:16:02.691Z,1012.72
2018-07-15T08:17:12.618Z,1012.71
2018-07-15T08:18:21.536Z,1012.73
2018-07-15T08:19:30.952Z,1012.73
2018-07-15T08:20:40.121Z,1012.74
2018-07-15T08:21:49.273Z,1012.72
2018-07-15T08:22:57.914Z,1012.71
2018-07-15T08:24:07.067Z,1012.71
2018-07-15T08:25:16.490Z,1012.69
2018-07-15T08:26:26.155Z,1012.7
2018-07-15T08:27:35.302Z,1012.67
2018-07-15T08:28:44.709Z,1012.7
2018-07-15T08:29:54.389Z,1012.67
2018-07-15T08:31:03.808Z,1012.7
2018-07-15T08:32:13.234Z,1012.71
2018-07-15T08:33:22.897Z,1012.68
2018-07-15T08:34:32.062Z,1012.66
2018-07-15T08:35:41.220Z,1012.68
2018-07-15T08:36:50.639Z,1012.69
2018-07-15T08:37:59.801Z,1012.68
2018-07-15T08:39:09.465Z,1012.67
2018-07-15T08:40:18.868Z,1012.67
2018-07-15T08:41:28.543Z,1012.64
2018-07-15T08:42:38.197Z,1012.61
2018-07-15T08:43:47.351Z,1012.62
2018-07-15T08:44:57.274Z,1012.63
2018-07-15T08:46:06.794Z,1012.61
2018-07-15T08:47:16.234Z,1012.63
2018-07-15T08:48:25.924Z,1012.65
2018-07-15T08:49:35.856Z,1012.59
2018-07-15T08:50:45.269Z,1012.6
2018-07-15T08:51:55.185Z,1012.56
2018-07-15T08:53:04.584Z,1012.57
2018-07-15T08:54:13.986Z,1012.55
2018-07-15T08:55:23.409Z,1012.55
2018-07-15T08:56:32.977Z,1012.57
2018-07-15T08:57:42.380Z,1012.6
2018-07-15T08:58:51.298Z,1012.57
2018-07-15T09:00:00.701Z,1012.55
2018-07-15T09:01:10.381Z,1012.54
2018-07-15T09:02:19.794Z,1012.56
2018-07-15T09:03:29.608Z,1012.57
2018-07-15T09:04:39.028Z,1012.59
2018-07-15T09:05:48.436Z,1012.58
2018-07-15T09:06:58.106Z,1012.58
2018-07-15T09:08:07.252Z,1012.6
2018-07-15T09:09:16.533Z,1012.56
2018-07-15T09:10:25.689Z,1012.51
2018-07-15T09:11:35.111Z,1012.52
2018-07-15T09:12:44.056Z,1012.51
2018-07-15T09:13:54.083Z,1012.5
2018-07-15T09:15:03.834Z,1012.53
2018-07-15T09:16:13.530Z,1012.52
2018-07-15T09:17:22.951Z,1012.52
2018-07-15T09:18:32.097Z,1012.52
2018-07-15T09:19:41.504Z,1012.54
2018-07-15T09:20:50.671Z,1012.52
2018-07-15T09:22:00.088Z,1012.5
2018-07-15T09:23:09.753Z,1012.51
2018-07-15T09:24:19.423Z,1012.46
2018-07-15T09:25:28.579Z,1012.49
2018-07-15T09:26:37.484Z,1012.47
2018-07-15T09:27:46.911Z,1012.47
2018-07-15T09:28:56.502Z,1012.47
2018-07-15T09:30:06.079Z,1012.41
2018-07-15T09:31:15.514Z,1012.42
2018-07-15T09:32:24.925Z,1012.46
2018-07-15T09:33:34.084Z,1012.44
2018-07-15T09:34:43.745Z,1012.43
2018-07-15T09:35:52.887Z,1012.42
2018-07-15T09:37:02.060Z,1012.42
2018-07-15T09:38:11.980Z,1012.46
2018-07-15T09:39:21.652Z,1012.47
2018-07-15T09:40:30.795Z,1012.44
2018-07-15T09:41:40.712Z,1012.41
2018-07-15T09:42:49.858Z,1012.4
2018-07-15T09:43:59.276Z,1012.43
2018-07-15T09:45:08.677Z,1012.46
2018-07-15T09:46:18.095Z,1012.47
2018-07-15T09:47:27.257Z,1012.48
2018-07-15T09:48:36.681Z,1012.46
2018-07-15T09:49:46.602Z,1012.43
2018-07-15T09:50:56.281Z,1012.41
2018-07-15T09:52:05.699Z,1012.41
2018-07-15T09:53:15.380Z,1012.4
2018-07-15T09:54:24.534Z,1012.4
2018-07-15T09:55:34.205Z,1012.41
2018-07-15T09:56:43.613Z,1012.37
2018-07-15T09:57:52.766Z,1012.38
2018-07-15T09:59:02.707Z,1012.4
2018-07-15T10:00:12.379Z,1012.32
2018-07-15T10:01:22.294Z,1012.29
2018-07-15T10:02:31.450Z,1012.31
2018-07-15T10:03:40.334Z,1012.31
2018-07-15T10:04:49.496Z,1012.33
2018-07-15T10:05:58.410Z,1012.33
2018-07-15T10:07:07.832Z,1012.29
2018-07-15T10:08:16.975Z,1012.31
2018-07-15T10:09:26.420Z,1012.32
2018-07-15T10:10:35.968Z,1012.31
2018-07-15T10:11:45.741Z,1012.27
2018-07-15T10:12:55.145Z,1012.29
2018-07-15T10:14:04.849Z,1012.26
2018-07-15T10:15:14.520Z,1012.27
2018-07-15T10:16:24.176Z,1012.26
2018-07-15T10:17:34.095Z,1012.26
2018-07-15T10:18:43.246Z,1012.22
2018-07-15T10:19:52.483Z,1012.21
2018-07-15T10:21:01.897Z,1012.2
2018-07-15T10:22:11.566Z,1012.19
2018-07-15T10:23:20.716Z,1012.23
2018-07-15T10:24:30.114Z,1012.21
2018-07-15T10:25:39.532Z,1012.19
2018-07-15T10:26:49.208Z,1012.21
2018-07-15T10:27:58.625Z,1012.17
2018-07-15T10:29:08.030Z,1012.2
2018-07-15T10:30:17.455Z,1012.21
2018-07-15T10:31:27.110Z,1012.14
2018-07-15T10:32:37.051Z,1012.16
2018-07-15T10:33:45.957Z,1012.13
2018-07-15T10:34:55.380Z,1012.12
2018-07-15T10:36:04.277Z,1012.16
2018-07-15T10:37:13.433Z,1012.13
2018-07-15T10:38:22.587Z,1012.07
2018-07-15T10:39:32.177Z,1012.08
2018-07-15T10:40:41.079Z,1012.09
2018-07-15T10:41:49.979Z,1012.08
2018-07-15T10:42:59.662Z,1012.03
2018-07-15T10:44:09.071Z,1012.04
2018-07-15T10:45:18.993Z,1012.01
2018-07-15T10:46:28.925Z,1012.03
2018-07-15T10:47:38.334Z,1012.01
2018-07-15T10:48:47.494Z,1012.06
2018-07-15T10:49:56.899Z,1012.08
2018-07-15T10:51:06.318Z,1011.98
2018-07-15T10:52:14.960Z,1011.99
2018-07-15T10:53:24.115Z,1012
2018-07-15T10:54:33.278Z,1012
2018-07-15T10:55:42.172Z,1011.97
2018-07-15T10:56:51.590Z,1011.94
2018-07-15T10:58:00.743Z,1011.95
2018-07-15T10:59:09.892Z,1012
2018-07-15T11:00:19.316Z,1011.91
2018-07-15T11:01:28.732Z,1011.89
2018-07-15T11:02:37.885Z,1011.89
2018-07-15T11:03:47.313Z,1011.84
2018-07-15T11:04:56.458Z,1011.84
2018-07-15T11:06:06.417Z,1011.83
2018-07-15T11:07:15.945Z,1011.82
2018-07-15T11:08:25.344Z,1011.8
2018-07-15T11:09:34.752Z,1011.82
2018-07-15T11:10:44.160Z,1011.83
2018-07-15T11:11:53.322Z,1011.82
2018-07-15T11:13:02.998Z,1011.82
2018-07-15T11:14:12.691Z,1011.76
2018-07-15T11:15:22.402Z,1011.75
2018-07-15T11:16:32.481Z,1011.72
2018-07-15T11:17:42.636Z,1011.77
2018-07-15T11:18:52.331Z,1011.75
2018-07-15T11:20:01.762Z,1011.73
2018-07-15T11:21:11.457Z,1011.76
2018-07-15T11:22:20.921Z,1011.72
2018-07-15T11:23:31.215Z,1011.73
2018-07-15T11:24:40.637Z,1011.73
2018-07-15T11:25:50.319Z,1011.71
2018-07-15T11:27:00.088Z,1011.67
2018-07-15T11:28:09.498Z,1011.6
2018-07-15T11:29:18.912Z,1011.63
2018-07-15T11:30:28.594Z,1011.66
2018-07-15T11:31:38.266Z,1011.61
2018-07-15T11:32:47.450Z,1011.62
2018-07-15T11:33:56.603Z,1011.6
2018-07-15T11:35:05.523Z,1011.62
2018-07-15T11:36:15.448Z,1011.6
2018-07-15T11:37:24.356Z,1011.57
2018-07-15T11:38:33.765Z,1011.58
2018-07-15T11:39:42.928Z,1011.55
2018-07-15T11:40:52.127Z,1011.57
2018-07-15T11:42:01.288Z,1011.49
2018-07-15T11:43:10.468Z,1011.45
2018-07-15T11:44:19.122Z,1011.5
2018-07-15T11:45:28.294Z,1011.53
2018-07-15T11:46:37.192Z,1011.59
2018-07-15T11:47:46.359Z,1011.5
2018-07-15T11:48:55.517Z,1011.51
2018-07-15T11:50:04.675Z,1011.5
2018-07-15T11:51:13.840Z,1011.52
2018-07-15T11:52:22.733Z,1011.47
2018-07-15T11:53:32.146Z,1011.43
2018-07-15T11:54:41.186Z,1011.39
2018-07-15T11:55:51.242Z,1011.47
2018-07-15T11:57:00.406Z,1011.43
2018-07-15T11:58:10.081Z,1011.39
2018-07-15T11:59:18.993Z,1011.41
2018-07-15T12:00:28.414Z,1011.37
2018-07-15T12:01:37.862Z,1011.35
2018-07-15T12:02:47.484Z,1011.39
2018-07-15T12:03:56.890Z,1011.37
2018-07-15T12:05:06.288Z,1011.37
2018-07-15T12:06:15.452Z,1011.32
2018-07-15T12:07:25.101Z,1011.31
2018-07-15T12:08:34.776Z,1011.26
2018-07-15T12:09:43.673Z,1011.25
2018-07-15T12:10:52.843Z,1011.23
2018-07-15T12:12:02.731Z,1011.21
2018-07-15T12:13:12.466Z,1011.2
2018-07-15T12:14:21.840Z,1011.24
2018-07-15T12:15:31.269Z,1011.22
2018-07-15T12:16:40.673Z,1011.22
2018-07-15T12:17:50.070Z,1011.24
2018-07-15T12:18:59.488Z,1011.25
2018-07-15T12:20:09.410Z,1011.22
2018-07-15T12:21:18.826Z,1011.17
2018-07-15T12:22:27.729Z,1011.12
2018-07-15T12:23:37.167Z,1011.1
2018-07-15T12:24:46.855Z,1011.19
2018-07-15T12:25:56.524Z,1011.12
2018-07-15T12:27:05.684Z,1011.08
2018-07-15T12:28:15.385Z,1011.1
2018-07-15T12:29:25.484Z,1011.05
2018-07-15T12:30:34.899Z,1011.05
2018-07-15T12:31:44.820Z,1010.99
2018-07-15T12:32:54.221Z,1010.98
2018-07-15T12:34:03.903Z,1010.96
2018-07-15T12:35:13.322Z,1010.9
2018-07-15T12:36:22.229Z,1010.97
2018-07-15T12:37:31.651Z,1010.94
2018-07-15T12:38:41.352Z,1010.85
2018-07-15T12:39:51.273Z,1010.85
2018-07-15T12:41:00.424Z,1010.93
2018-07-15T12:42:10.125Z,1010.86
2018-07-15T12:43:19.027Z,1010.86
2018-07-15T12:44:28.305Z,1010.85
2018-07-15T12:45:36.961Z,1010.84
2018-07-15T12:46:46.149Z,1010.82
2018-07-15T12:47:55.302Z,1010.8
2018-07-15T12:49:04.493Z,1010.84
2018-07-15T12:50:13.929Z,1010.84
2018-07-15T12:51:23.623Z,1010.86
2018-07-15T12:52:32.780Z,1010.85
2018-07-15T12:53:42.485Z,1010.85
2018-07-15T12:54:51.909Z,1010.85
2018-07-15T12:56:01.622Z,1010.8
2018-07-15T12:57:10.763Z,1010.78
2018-07-15T12:58:20.444Z,1010.69
2018-07-15T12:59:29.595Z,1010.7
2018-07-15T13:00:38.754Z,1010.72
2018-07-15T13:01:47.658Z,1010.75
2018-07-15T13:02:56.805Z,1010.69
2018-07-15T13:04:06.004Z,1010.68
2018-07-15T13:05:15.437Z,1010.69
2018-07-15T13:06:24.086Z,1010.65
2018-07-15T13:07:33.272Z,1010.62
2018-07-15T13:08:42.994Z,1010.63
2018-07-15T13:09:52.418Z,1010.58
2018-07-15T13:11:01.586Z,1010.58
2018-07-15T13:12:11.000Z,1010.57
2018-07-15T13:13:19.931Z,1010.59
2018-07-15T13:14:29.078Z,1010.55
2018-07-15T13:15:38.243Z,1010.64
2018-07-15T13:16:48.171Z,1010.6
2018-07-15T13:17:57.355Z,1010.56
2018-07-15T13:19:06.553Z,1010.55
2018-07-15T13:20:15.723Z,1010.49
2018-07-15T13:21:25.170Z,1010.38
2018-07-15T13:22:34.591Z,1010.41
2018-07-15T13:23:44.015Z,1010.43
2018-07-15T13:24:53.446Z,1010.36
2018-07-15T13:26:02.858Z,1010.31
2018-07-15T13:27:12.267Z,1010.29
2018-07-15T13:28:21.684Z,1010.3
2018-07-15T13:29:31.079Z,1010.34
2018-07-15T13:30:40.629Z,1010.32
2018-07-15T13:31:50.294Z,1010.28
2018-07-15T13:32:59.981Z,1010.27
2018-07-15T13:34:09.205Z,1010.29
2018-07-15T13:35:18.609Z,1010.26
2018-07-15T13:36:28.017Z,1010.22
2018-07-15T13:37:37.702Z,1010.23
2018-07-15T13:38:47.117Z,1010.22
2018-07-15T13:39:56.543Z,1010.27
2018-07-15T13:41:06.214Z,1010.27
2018-07-15T13:42:15.637Z,1010.3
2018-07-15T13:43:25.051Z,1010.26
2018-07-15T13:44:34.968Z,1010.23
2018-07-15T13:45:44.370Z,1010.21
2018-07-15T13:46:53.780Z,1010.29
2018-07-15T13:48:03.253Z,1010.31
2018-07-15T13:49:12.200Z,1010.23
2018-07-15T13:50:21.362Z,1010.18
2018-07-15T13:51:30.267Z,1010.2
2018-07-15T13:52:39.482Z,1010.21
2018-07-15T13:53:48.915Z,1010.22
2018-07-15T13:54:58.325Z,1010.2
2018-07-15T13:56:07.246Z,1010.13
2018-07-15T13:57:17.180Z,1010.05
2018-07-15T13:58:26.640Z,1010.07
2018-07-15T13:59:36.112Z,1010.09
2018-07-15T14:00:45.527Z,1010.12
2018-07-15T14:01:54.936Z,1010.09
2018-07-15T14:03:04.629Z,1010.1